Time;durP1;ratioP1;P1;durP2;ratioP2;P2;SDS_P1;SDS_P2;PMS_P1;PMS_P2;Temp;Humidity;BMP_temperature;BMP_pressure;BME280_temperature;BME280_humidity;BME280_pressure;Samples;Min_cycle;Max_cycle;Signal;HPM_P1;HPM_P2
2022/04/07 00:01:28;;;;;;;4.93;2.20;;;;;;;9.08;94.30;99156.28;5049678;28;20033;-69
2022/04/07 00:03:54;;;;;;;2.53;2.10;;;;;;;9.05;93.62;99154.06;5049442;28;20028;-69
2022/04/07 00:06:19;;;;;;;3.30;1.88;;;;;;;9.03;94.50;99150.03;5049049;28;20040;-69
2022/04/07 00:08:45;;;;;;;4.07;2.08;;;;;;;8.98;94.09;99138.22;5049672;28;20036;-69
2022/04/07 00:11:10;;;;;;;4.68;2.45;;;;;;;8.97;93.76;99139.25;5049671;28;20025;-69
2022/04/07 00:13:36;;;;;;;6.53;1.85;;;;;;;9.00;93.05;99128.16;5049593;28;20033;-69
2022/04/07 00:16:01;;;;;;;3.05;1.92;;;;;;;8.97;92.85;99118.00;5049404;28;20032;-69
2022/04/07 00:18:27;;;;;;;9.02;2.38;;;;;;;8.99;92.82;99118.56;5048065;28;20944;-69
2022/04/07 00:20:53;;;;;;;2.05;1.85;;;;;;;8.93;92.44;99105.38;5049296;28;20029;-69
2022/04/07 00:23:20;;;;;;;5.07;1.52;;;;;;;8.92;92.38;99109.88;5047970;28;20120;-69
2022/04/07 00:25:45;;;;;;;6.40;2.67;;;;;;;8.86;91.98;99105.50;5049494;28;20472;-69
2022/04/07 00:28:11;;;;;;;3.00;1.95;;;;;;;8.90;92.20;99111.16;5049311;28;20033;-69
2022/04/07 00:30:39;;;;;;;6.00;1.77;;;;;;;8.88;92.68;99107.91;5049476;28;20024;-69
2022/04/07 00:33:05;;;;;;;5.97;1.98;;;;;;;8.89;92.80;99099.72;5049474;28;20131;-69
2022/04/07 00:35:31;;;;;;;11.27;3.30;;;;;;;8.87;92.92;99104.44;5049285;28;20115;-69
2022/04/07 00:37:57;;;;;;;5.82;1.88;;;;;;;8.79;93.17;99078.19;5049371;28;20128;-69
2022/04/07 00:40:22;;;;;;;3.25;1.52;;;;;;;8.87;93.90;99087.69;5047755;28;20119;-69
2022/04/07 00:42:49;;;;;;;2.72;1.73;;;;;;;8.82;93.83;99082.25;5049241;28;20056;-69
2022/04/07 00:45:15;;;;;;;7.70;1.77;;;;;;;8.87;92.99;99077.84;5049064;28;20025;-69
2022/04/07 00:47:42;;;;;;;5.00;1.95;;;;;;;8.83;93.29;99065.25;5049008;28;20052;-69
2022/04/07 00:50:08;;;;;;;6.13;1.80;;;;;;;8.78;93.49;99052.66;5049154;28;20913;-69
2022/04/07 00:52:34;;;;;;;3.63;1.77;;;;;;;8.75;93.53;99051.28;5049239;28;20036;-69
2022/04/07 00:55:01;;;;;;;5.35;2.75;;;;;;;8.79;93.16;99046.31;5049140;28;20039;-69
2022/04/07 00:57:27;;;;;;;5.85;1.90;;;;;;;8.80;93.01;99047.09;5049134;28;20040;-69
2022/04/07 00:59:53;;;;;;;10.45;3.50;;;;;;;8.82;93.08;99040.53;5049474;28;20508;-69
2022/04/07 01:02:19;;;;;;;6.22;2.10;;;;;;;8.81;93.25;99032.78;5053208;28;20033;-69
2022/04/07 01:04:45;;;;;;;5.85;1.95;;;;;;;8.83;93.24;99030.69;5053199;28;20051;-69
2022/04/07 01:07:11;;;;;;;5.35;2.83;;;;;;;8.77;93.57;99011.16;5053249;28;20444;-69
2022/04/07 01:09:37;;;;;;;3.45;1.90;;;;;;;8.76;93.89;99023.66;5053107;28;20033;-69
2022/04/07 01:12:03;;;;;;;7.90;2.35;;;;;;;8.74;93.20;99012.44;5053079;28;20450;-69
2022/04/07 01:14:29;;;;;;;6.35;1.92;;;;;;;8.81;93.43;99020.31;5052915;28;20484;-69
2022/04/07 01:16:54;;;;;;;6.07;2.53;;;;;;;8.76;94.16;99010.34;5052984;28;20036;-70
2022/04/07 01:19:19;;;;;;;4.18;1.88;;;;;;;8.66;94.29;98996.81;5051288;28;20044;-69
2022/04/07 01:21:45;;;;;;;5.93;2.22;;;;;;;8.68;94.57;99004.59;5052303;28;20029;-69
2022/04/07 01:24:12;;;;;;;6.65;2.08;;;;;;;8.67;94.62;99005.59;5052392;28;20039;-69
2022/04/07 01:26:39;;;;;;;2.90;1.77;;;;;;;8.71;94.61;99002.25;5052334;28;20538;-69
2022/04/07 01:29:10;;;;;;;5.93;2.15;;;;;;;8.70;94.75;98998.00;5052601;28;20036;-69
2022/04/07 01:31:36;;;;;;;7.82;2.53;;;;;;;8.70;94.46;98994.53;5052881;28;20025;-69
2022/04/07 01:34:03;;;;;;;5.60;3.28;;;;;;;8.70;94.56;98995.34;5052556;28;20052;-69
2022/04/07 01:36:31;;;;;;;6.07;2.67;;;;;;;8.69;94.40;98975.09;5051339;28;20033;-69
2022/04/07 01:38:58;;;;;;;4.20;2.67;;;;;;;8.71;93.92;98985.50;5052360;28;20028;-69
2022/04/07 01:41:25;;;;;;;10.60;3.60;;;;;;;8.74;93.73;98971.75;5052289;28;20040;-69
2022/04/07 01:43:56;;;;;;;7.05;2.95;;;;;;;8.74;93.73;98964.59;5052399;28;20032;-69
2022/04/07 01:46:22;;;;;;;9.50;3.27;;;;;;;8.77;93.30;98968.63;5051139;28;20029;-69
2022/04/07 01:48:49;;;;;;;6.05;2.10;;;;;;;8.80;92.53;98956.72;5052283;28;20309;-69
2022/04/07 01:51:15;;;;;;;10.43;2.53;;;;;;;8.77;92.16;98942.84;5052080;28;20461;-69
2022/04/07 01:53:41;;;;;;;10.45;2.78;;;;;;;8.85;91.88;98944.34;5052225;28;20112;-69
2022/04/07 01:56:07;;;;;;;6.38;1.92;;;;;;;8.82;91.14;98934.19;5052189;28;20033;-69
2022/04/07 01:58:34;;;;;;;6.13;2.00;;;;;;;8.91;91.00;98945.31;5052055;28;20086;-69
2022/04/07 02:01:00;;;;;;;5.60;1.85;;;;;;;8.94;90.85;98936.84;5052036;28;20036;-69
2022/04/07 02:03:25;;;;;;;6.07;2.20;;;;;;;8.92;91.08;98934.41;5052225;28;20060;-69
2022/04/07 02:05:50;;;;;;;7.78;2.50;;;;;;;8.97;90.54;98944.34;5051978;28;20033;-69
2022/04/07 02:08:16;;;;;;;3.22;1.98;;;;;;;9.00;90.70;98909.31;5051828;28;20182;-69
2022/04/07 02:10:41;;;;;;;6.38;2.03;;;;;;;9.01;90.88;98916.25;5051792;28;20140;-69
2022/04/07 02:13:07;;;;;;;4.97;2.22;;;;;;;9.01;90.89;98902.94;5050807;28;20033;-69
2022/04/07 02:15:32;;;;;;;8.10;2.20;;;;;;;8.99;90.59;98900.53;5051940;28;20025;-69
2022/04/07 02:17:58;;;;;;;8.95;2.20;;;;;;;8.94;90.54;98887.16;5051856;28;20049;-69
2022/04/07 02:20:23;;;;;;;6.40;2.08;;;;;;;9.06;90.67;98907.56;5051786;28;20079;-69
2022/04/07 02:22:49;;;;;;;6.80;1.90;;;;;;;9.04;91.02;98904.34;5051254;28;20033;-69
2022/04/07 02:25:14;;;;;;;4.82;2.60;;;;;;;8.99;91.36;98897.09;5051296;28;20041;-69
2022/04/07 02:27:41;;;;;;;4.38;1.75;;;;;;;8.93;91.30;98892.69;5051248;28;20066;-69
2022/04/07 02:30:09;;;;;;;5.18;2.00;;;;;;;8.88;91.80;98885.44;5051484;28;20408;-69
2022/04/07 02:32:35;;;;;;;4.68;2.53;;;;;;;8.85;91.77;98896.50;5051510;28;20037;-69
2022/04/07 02:35:00;;;;;;;6.55;1.70;;;;;;;8.84;91.17;98884.28;5051616;28;20051;-69
2022/04/07 02:37:26;;;;;;;5.40;1.70;;;;;;;8.90;91.46;98885.97;5051459;28;20025;-69
2022/04/07 02:39:53;;;;;;;5.20;2.63;;;;;;;8.93;91.19;98872.25;5051400;28;20071;-69
2022/04/07 02:42:18;;;;;;;4.97;2.28;;;;;;;8.95;90.81;98872.78;5051367;28;20444;-69
2022/04/07 02:44:44;;;;;;;7.75;2.42;;;;;;;9.01;90.57;98863.06;5051388;28;20067;-69
2022/04/07 02:47:09;;;;;;;7.32;1.90;;;;;;;8.99;90.61;98868.63;5051306;28;20086;-69
2022/04/07 02:49:34;;;;;;;3.10;1.58;;;;;;;8.86;90.44;98855.63;5051126;28;20092;-69
2022/04/07 02:52:00;;;;;;;6.80;2.20;;;;;;;8.91;90.42;98858.38;5051236;28;20063;-69
2022/04/07 02:54:25;;;;;;;6.85;2.70;;;;;;;8.91;90.20;98839.75;5049979;28;20032;-69
2022/04/07 02:56:50;;;;;;;6.60;2.30;;;;;;;8.88;90.44;98844.72;5050865;28;20538;-69
2022/04/07 02:59:16;;;;;;;6.25;1.75;;;;;;;8.92;89.42;98840.56;5051101;28;20116;-69
2022/04/07 03:01:42;;;;;;;10.88;3.78;;;;;;;8.91;89.64;98834.44;5050961;28;20029;-69
2022/04/07 03:04:07;;;;;;;5.10;2.17;;;;;;;8.96;89.15;98825.75;5050565;28;20029;-69
2022/04/07 03:06:32;;;;;;;5.95;2.78;;;;;;;8.90;88.97;98808.09;5050531;28;20495;-69
2022/04/07 03:08:58;;;;;;;7.10;2.25;;;;;;;8.93;88.92;98808.44;5050717;28;20037;-69
2022/04/07 03:11:23;;;;;;;6.72;2.33;;;;;;;8.99;88.72;98812.81;5050846;28;20035;-69
2022/04/07 03:13:48;;;;;;;9.43;2.75;;;;;;;9.06;88.41;98806.53;5050680;28;20492;-69
2022/04/07 03:16:14;;;;;;;7.25;2.75;;;;;;;9.14;87.75;98808.81;5050784;28;20071;-70
2022/04/07 03:18:39;;;;;;;10.30;2.10;;;;;;;9.11;88.08;98788.81;5050640;28;20052;-69
2022/04/07 03:21:04;;;;;;;8.93;2.88;;;;;;;9.19;87.46;98791.09;5050499;28;20029;-69
2022/04/07 03:23:30;;;;;;;5.45;2.13;;;;;;;9.19;87.69;98782.31;5050081;28;20024;-69
2022/04/07 03:25:55;;;;;;;9.85;3.08;;;;;;;9.20;87.58;98781.28;5049885;28;20116;-69
2022/04/07 03:28:20;;;;;;;4.03;2.22;;;;;;;9.17;87.28;98779.09;5049841;28;20044;-69
2022/04/07 03:30:46;;;;;;;15.43;3.58;;;;;;;9.17;87.00;98752.50;5049725;28;20043;-69
2022/04/07 03:33:11;;;;;;;5.15;2.20;;;;;;;9.24;87.29;98760.31;5050383;28;20412;-69
2022/04/07 03:35:37;;;;;;;6.07;2.17;;;;;;;9.25;86.73;98764.59;5050408;28;20028;-69
2022/04/07 03:38:06;;;;;;;7.25;2.42;;;;;;;9.25;86.63;98765.41;5050258;28;20020;-69
2022/04/07 03:40:34;;;;;;;11.23;2.63;;;;;;;9.28;85.83;98758.81;5050016;28;20033;-69
2022/04/07 03:43:00;;;;;;;6.82;2.58;;;;;;;9.28;85.66;98746.31;5050167;28;20115;-69
2022/04/07 03:45:25;;;;;;;9.02;3.22;;;;;;;9.32;85.20;98750.09;5050130;28;20031;-69
2022/04/07 03:47:51;;;;;;;8.77;2.00;;;;;;;9.32;85.53;98730.66;5050001;28;20032;-69
2022/04/07 03:50:16;;;;;;;2.72;1.55;;;;;;;9.26;85.42;98721.00;5050136;28;20036;-69
2022/04/07 03:52:41;;;;;;;11.52;2.45;;;;;;;9.32;84.90;98728.81;5049935;28;20033;-69
2022/04/07 03:55:07;;;;;;;7.45;2.00;;;;;;;9.33;84.96;98709.16;5049841;28;20033;-69
2022/04/07 03:57:33;;;;;;;8.50;2.65;;;;;;;9.34;84.84;98725.91;5049969;28;20460;-69
2022/04/07 03:59:58;;;;;;;8.20;2.40;;;;;;;9.33;85.54;98708.34;5049862;28;20041;-69
2022/04/07 04:02:23;;;;;;;8.50;2.45;;;;;;;9.34;84.78;98720.59;5048527;28;20033;-69
2022/04/07 04:04:49;;;;;;;6.75;2.35;;;;;;;9.38;84.75;98703.13;5049914;28;20036;-69
2022/04/07 04:07:15;;;;;;;7.10;2.03;;;;;;;9.31;85.54;98695.28;5049889;28;20024;-69
2022/04/07 04:09:40;;;;;;;10.20;2.15;;;;;;;9.29;86.46;98678.75;5049840;28;20028;-69
2022/04/07 04:12:06;;;;;;;5.10;2.47;;;;;;;9.28;85.93;98679.81;5048274;28;20526;-69
2022/04/07 04:14:31;;;;;;;7.75;2.40;;;;;;;9.25;86.01;98663.50;5049698;28;20083;-69
2022/04/07 04:16:56;;;;;;;6.57;2.40;;;;;;;9.27;85.59;98656.91;5049609;28;20077;-69
2022/04/07 04:19:22;;;;;;;10.25;2.65;;;;;;;9.23;85.46;98633.72;5049507;28;20025;-69
2022/04/07 04:21:48;;;;;;;5.07;1.50;;;;;;;9.25;85.63;98627.09;5049004;28;20029;-69
2022/04/07 04:24:13;;;;;;;5.55;1.60;;;;;;;9.20;85.57;98606.53;5049309;28;20582;-69
2022/04/07 04:26:39;;;;;;;3.20;1.75;;;;;;;9.25;84.89;98597.84;5047688;28;20456;-69
2022/04/07 04:29:04;;;;;;;5.22;2.58;;;;;;;9.29;84.71;98587.50;5049104;28;20369;-69
2022/04/07 04:31:29;;;;;;;3.72;1.75;;;;;;;9.26;84.63;98582.69;5049276;28;20036;-69
2022/04/07 04:33:55;;;;;;;2.50;1.95;;;;;;;9.25;84.49;98581.88;5049332;28;20487;-69
2022/04/07 04:36:21;;;;;;;6.97;2.05;;;;;;;9.25;84.54;98578.41;5048849;28;20025;-69
2022/04/07 04:38:47;;;;;;;4.97;2.53;;;;;;;9.26;84.53;98580.03;5049213;28;20031;-69
2022/04/07 04:41:13;;;;;;;5.30;1.67;;;;;;;9.27;84.99;98577.09;5049293;28;20024;-69
2022/04/07 04:43:38;;;;;;;16.13;2.88;;;;;;;9.30;84.23;98559.84;5049337;28;20043;-69
2022/04/07 04:46:03;;;;;;;6.47;3.10;;;;;;;9.30;84.24;98563.34;5049252;28;20033;-69
2022/04/07 04:48:29;;;;;;;5.50;1.90;;;;;;;9.37;83.69;98558.63;5049072;28;20060;-69
2022/04/07 04:50:58;;;;;;;5.57;2.33;;;;;;;9.42;83.92;98555.25;5048807;28;20029;-69
2022/04/07 04:53:24;;;;;;;2.78;1.52;;;;;;;9.36;84.82;98545.59;5047639;28;20057;-69
2022/04/07 04:55:49;;;;;;;2.55;1.92;;;;;;;9.34;85.42;98553.00;5048926;28;20039;-69
2022/04/07 04:58:14;;;;;;;1.73;1.58;;;;;;;9.34;86.33;98545.03;5047731;28;20484;-69
2022/04/07 05:00:41;;;;;;;4.38;1.70;;;;;;;9.24;87.97;98535.03;5049079;28;20025;-69
2022/04/07 05:03:06;;;;;;;1.65;1.10;;;;;;;9.21;89.04;98546.97;5031151;28;20388;-69
2022/04/07 05:05:31;;;;;;;2.33;1.73;;;;;;;9.11;89.63;98533.53;5049020;28;20029;-69
2022/04/07 05:07:57;;;;;;;3.35;1.40;;;;;;;9.06;90.30;98508.72;5049038;28;20070;-69
2022/04/07 05:10:22;;;;;;;2.60;1.23;;;;;;;9.04;90.36;98503.66;5049020;28;20498;-69
2022/04/07 05:12:47;;;;;;;2.72;1.55;;;;;;;9.05;90.01;98484.00;5048936;28;20543;-69
2022/04/07 05:15:13;;;;;;;2.20;1.67;;;;;;;9.05;89.94;98465.38;5048976;28;20025;-69
2022/04/07 05:17:38;;;;;;;1.67;1.40;;;;;;;9.05;90.22;98481.34;5048955;28;20092;-69
2022/04/07 05:20:04;;;;;;;7.35;2.10;;;;;;;9.06;90.58;98498.09;5048778;28;20040;-69
2022/04/07 05:22:29;;;;;;;2.55;1.20;;;;;;;9.07;90.18;98486.44;5048694;28;20043;-69
2022/04/07 05:24:55;;;;;;;2.75;1.48;;;;;;;9.10;90.44;98481.41;5048818;28;20051;-69
2022/04/07 05:27:20;;;;;;;6.82;1.60;;;;;;;9.07;91.04;98465.16;5048358;28;20044;-69
2022/04/07 05:29:46;;;;;;;1.10;1.00;;;;;;;9.03;90.88;98456.84;5046891;28;20398;-69
2022/04/07 05:32:11;;;;;;;5.50;1.80;;;;;;;9.06;90.80;98460.88;5048331;28;20027;-69
2022/04/07 05:34:36;;;;;;;5.50;1.40;;;;;;;9.09;90.85;98442.59;5048778;28;20048;-69
2022/04/07 05:37:02;;;;;;;1.98;1.40;;;;;;;9.09;91.26;98439.94;5048660;28;20120;-69
2022/04/07 05:39:27;;;;;;;3.42;1.70;;;;;;;8.97;92.40;98441.88;5048820;28;20477;-69
2022/04/07 05:41:53;;;;;;;2.65;1.60;;;;;;;8.87;93.16;98428.44;5048629;28;20029;-69
2022/04/07 05:44:18;;;;;;;1.52;1.10;;;;;;;8.84;93.08;98428.94;5048772;28;20119;-69
2022/04/07 05:46:43;;;;;;;6.10;1.77;;;;;;;8.82;93.90;98433.69;5050257;28;20071;-69
2022/04/07 05:49:10;;;;;;;3.80;2.08;;;;;;;8.77;94.86;98419.28;5052263;28;20071;-69
2022/04/07 05:51:36;;;;;;;7.32;2.30;;;;;;;8.66;96.08;98408.75;5052301;28;20021;-69
2022/04/07 05:54:02;;;;;;;3.35;1.60;;;;;;;8.59;96.85;98405.47;5052035;28;20420;-69
2022/04/07 05:56:27;;;;;;;4.65;3.15;;;;;;;8.52;97.54;98409.09;5052180;28;20029;-69
2022/04/07 05:58:52;;;;;;;4.25;2.30;;;;;;;8.47;98.06;98400.25;5052316;28;20032;-69
2022/04/07 06:01:18;;;;;;;3.72;2.22;;;;;;;8.39;98.98;98374.09;5052044;28;20029;-69
2022/04/07 06:03:43;;;;;;;6.97;2.30;;;;;;;8.33;99.26;98374.00;5051979;28;20037;-69
2022/04/07 06:06:08;;;;;;;5.22;2.22;;;;;;;8.28;99.92;98375.78;5051669;28;20033;-69
2022/04/07 06:08:34;;;;;;;3.25;2.05;;;;;;;8.27;100.00;98361.69;5051924;28;20846;-68
2022/04/07 06:11:00;;;;;;;4.82;2.03;;;;;;;8.26;100.00;98365.41;5051799;28;20029;-69
2022/04/07 06:13:26;;;;;;;6.28;2.97;;;;;;;8.25;100.00;98360.31;5051718;28;20110;-69
2022/04/07 06:15:51;;;;;;;6.75;3.38;;;;;;;8.21;100.00;98348.59;5051743;28;20029;-69
2022/04/07 06:18:17;;;;;;;4.88;2.30;;;;;;;8.25;100.00;98339.06;5051796;28;20512;-69
2022/04/07 06:20:42;;;;;;;5.03;1.80;;;;;;;8.24;100.00;98346.25;5051654;28;20039;-69
2022/04/07 06:23:09;;;;;;;5.82;2.25;;;;;;;8.23;100.00;98317.28;5051427;28;20124;-69
2022/04/07 06:25:35;;;;;;;3.88;2.22;;;;;;;8.17;100.00;98321.72;5051555;28;20029;-69
2022/04/07 06:28:02;;;;;;;4.70;2.40;;;;;;;8.23;100.00;98323.41;5051327;28;20431;-69
2022/04/07 06:30:28;;;;;;;6.40;3.15;;;;;;;8.22;100.00;98318.31;5051259;28;20147;-69
2022/04/07 06:32:55;;;;;;;6.72;2.40;;;;;;;8.20;100.00;98307.13;5083178;28;20511;-69
2022/04/07 06:35:20;;;;;;;11.38;2.97;;;;;;;8.21;100.00;98309.56;5051326;28;20033;-69
2022/04/07 06:37:54;;;;;;;6.22;3.67;;;;;;;8.15;100.00;98296.44;5049984;28;20147;-69
2022/04/07 06:40:24;;;;;;;6.90;2.05;;;;;;;8.16;100.00;98295.41;5050121;28;20111;-69
2022/04/07 06:42:52;;;;;;;8.02;2.00;;;;;;;8.18;100.00;98296.78;5051354;28;20056;-69
2022/04/07 06:45:18;;;;;;;4.13;1.90;;;;;;;8.17;100.00;98281.88;5051251;28;20025;-69
2022/04/07 06:47:43;;;;;;;3.70;1.70;;;;;;;8.15;100.00;98268.06;5051015;28;20029;-68
2022/04/07 06:50:11;;;;;;;2.60;1.55;;;;;;;8.05;100.00;98238.72;5051120;28;20110;-68
2022/04/07 06:52:36;;;;;;;7.38;2.00;;;;;;;8.08;100.00;98236.38;5050923;28;20029;-68
2022/04/07 06:55:03;;;;;;;5.97;1.88;;;;;;;8.10;100.00;98225.53;5050842;28;20482;-68
2022/04/07 06:57:28;;;;;;;7.82;1.80;;;;;;;8.17;100.00;98242.06;5049218;28;20435;-68
2022/04/07 06:59:53;;;;;;;4.55;2.33;;;;;;;8.20;100.00;98232.81;5050750;28;20033;-70
2022/04/07 07:02:19;;;;;;;5.07;1.70;;;;;;;8.17;100.00;98215.50;5051019;28;20037;-69
2022/04/07 07:04:44;;;;;;;5.63;1.42;;;;;;;8.19;100.00;98215.28;5050934;28;20036;-70
2022/04/07 07:07:13;;;;;;;7.55;1.80;;;;;;;8.20;100.00;98212.38;5050863;28;20037;-71
2022/04/07 07:09:38;;;;;;;3.05;1.50;;;;;;;8.19;100.00;98194.84;5050980;28;20043;-69
2022/04/07 07:12:04;;;;;;;3.63;1.80;;;;;;;8.19;100.00;98176.25;5050778;28;20037;-68
2022/04/07 07:14:29;;;;;;;2.30;2.08;;;;;;;8.17;100.00;98188.97;5050730;28;20031;-68
2022/04/07 07:16:55;;;;;;;9.05;3.28;;;;;;;8.09;100.00;98176.91;5050615;28;20089;-68
2022/04/07 07:19:26;;;;;;;4.70;1.80;;;;;;;8.10;100.00;98180.41;5050627;28;20025;-71
2022/04/07 07:21:54;;;;;;;5.65;1.65;;;;;;;8.09;100.00;98163.63;5050337;28;20025;-69
2022/04/07 07:24:20;;;;;;;5.10;1.90;;;;;;;8.02;100.00;98156.94;5050401;28;20527;-69
2022/04/07 07:26:46;;;;;;;3.38;1.95;;;;;;;8.03;100.00;98146.06;5050349;28;20035;-68
2022/04/07 07:29:11;;;;;;;2.58;1.98;;;;;;;8.01;100.00;98136.75;5048747;28;20033;-69
2022/04/07 07:31:37;;;;;;;3.90;1.80;;;;;;;8.00;100.00;98121.88;5050124;28;20033;-68
2022/04/07 07:34:05;;;;;;;7.20;2.63;;;;;;;8.02;100.00;98102.00;5049511;28;20384;-68
2022/04/07 07:36:31;;;;;;;5.00;1.80;;;;;;;7.99;100.00;98083.09;5050048;28;20025;-68
2022/04/07 07:38:57;;;;;;;6.43;1.77;;;;;;;8.08;100.00;98105.50;5050381;28;20075;-68
2022/04/07 07:41:23;;;;;;;2.47;1.98;;;;;;;8.07;100.00;98125.94;5050138;28;20025;-68
2022/04/07 07:43:48;;;;;;;3.92;2.28;;;;;;;8.08;100.00;98170.00;5050281;28;20035;-68
2022/04/07 07:46:14;;;;;;;0.70;0.70;;;;;;;7.94;100.00;98184.72;5050193;28;20457;-68
2022/04/07 07:48:39;;;;;;;1.80;0.70;;;;;;;7.43;99.79;98189.25;5049997;28;20060;-68
2022/04/07 07:51:04;;;;;;;2.85;0.70;;;;;;;6.86;98.41;98152.28;5048793;28;20025;-68
2022/04/07 07:53:30;;;;;;;0.90;0.70;;;;;;;6.49;100.00;98232.13;5049900;28;20033;-68
2022/04/07 07:55:56;;;;;;;1.33;0.80;;;;;;;6.27;100.00;98242.53;5050017;28;20025;-68
2022/04/07 07:58:23;;;;;;;2.92;0.95;;;;;;;6.05;100.00;98279.38;5049729;28;20083;-68
2022/04/07 08:00:49;;;;;;;0.98;0.88;;;;;;;5.88;100.00;98268.66;5048006;28;20060;-68
2022/04/07 08:03:15;;;;;;;0.80;0.75;;;;;;;5.76;100.00;98275.78;5044546;28;20095;-68
2022/04/07 08:05:41;;;;;;;1.65;1.00;;;;;;;5.59;100.00;98287.03;5044891;28;20029;-68
2022/04/07 08:08:06;;;;;;;1.73;0.80;;;;;;;5.50;100.00;98269.88;5045262;28;20082;-68
2022/04/07 08:10:32;;;;;;;2.63;0.90;;;;;;;5.45;100.00;98265.28;5044804;28;20044;-68
2022/04/07 08:12:57;;;;;;;1.63;1.27;;;;;;;5.43;100.00;98254.13;5045537;28;20025;-68
2022/04/07 08:15:24;;;;;;;3.38;0.80;;;;;;;5.45;100.00;98265.28;5045230;28;20035;-69
2022/04/07 08:17:50;;;;;;;6.07;1.00;;;;;;;5.51;100.00;98245.06;5045155;28;20451;-68
2022/04/07 08:20:16;;;;;;;3.13;1.58;;;;;;;5.50;100.00;98248.72;5045322;28;20052;-69
2022/04/07 08:22:41;;;;;;;5.72;1.10;;;;;;;5.58;100.00;98253.69;5043952;28;20033;-68
2022/04/07 08:25:07;;;;;;;5.28;1.15;;;;;;;5.58;100.00;98248.41;5044178;28;20043;-67
2022/04/07 08:27:33;;;;;;;0.73;0.70;;;;;;;5.63;100.00;98245.06;5044893;28;20378;-68
2022/04/07 08:29:58;;;;;;;2.25;0.77;;;;;;;5.83;100.00;98256.09;5045311;28;20035;-68
2022/04/07 08:32:23;;;;;;;4.50;1.25;;;;;;;6.05;100.00;98255.56;5044685;28;20051;-68
2022/04/07 08:34:49;;;;;;;3.17;0.88;;;;;;;6.23;100.00;98244.03;5047423;28;20041;-68
2022/04/07 08:37:14;;;;;;;4.25;1.13;;;;;;;6.38;100.00;98239.06;5048772;28;20033;-68
2022/04/07 08:39:40;;;;;;;4.97;1.15;;;;;;;6.54;100.00;98222.44;5049050;28;20132;-68
2022/04/07 08:42:06;;;;;;;2.25;0.98;;;;;;;6.65;100.00;98234.03;5049202;28;20091;-68
2022/04/07 08:44:31;;;;;;;1.20;1.10;;;;;;;6.82;100.00;98238.59;5049250;28;20029;-68
2022/04/07 08:46:58;;;;;;;4.72;1.60;;;;;;;7.07;100.00;98233.72;5049089;28;20508;-68
2022/04/07 08:49:27;;;;;;;6.53;1.35;;;;;;;7.27;100.00;98220.03;5049010;28;20694;-68
2022/04/07 08:51:53;;;;;;;2.15;1.30;;;;;;;7.36;100.00;98217.78;5049007;28;20102;-68
2022/04/07 08:54:20;;;;;;;3.58;1.33;;;;;;;7.39;100.00;98204.06;5048823;28;20040;-68
2022/04/07 08:56:49;;;;;;;2.15;1.20;;;;;;;7.59;100.00;98214.16;5048680;28;20408;-68
2022/04/07 08:59:15;;;;;;;1.58;1.08;;;;;;;7.79;100.00;98205.72;5031158;28;20100;-68
2022/04/07 09:01:41;;;;;;;3.55;1.30;;;;;;;7.86;100.00;98196.53;5048395;28;20028;-68
2022/04/07 09:04:07;;;;;;;1.55;1.00;;;;;;;8.25;100.00;98220.41;5047498;28;20511;-68
2022/04/07 09:06:35;;;;;;;6.82;1.17;;;;;;;8.53;100.00;98223.94;5048703;28;20421;-68
2022/04/07 09:09:22;;;;;;;4.28;1.23;;;;;;;8.87;100.00;98229.09;5049024;28;20033;-68
2022/04/07 09:11:53;;;;;;;2.13;1.20;;;;;;;9.11;99.09;98211.00;5048947;28;20021;-68
2022/04/07 09:14:18;;;;;;;2.75;1.17;;;;;;;9.16;98.29;98227.78;5048858;28;20062;-68
2022/04/07 09:16:44;;;;;;;3.70;1.10;;;;;;;9.07;98.16;98223.19;5048890;28;20411;-68
2022/04/07 09:19:09;;;;;;;5.25;2.30;;;;;;;9.02;97.45;98213.31;5047213;28;20556;-68
2022/04/07 09:21:35;;;;;;;4.63;1.10;;;;;;;9.22;98.36;98225.97;5048791;28;20048;-68
2022/04/07 09:24:05;;;;;;;3.25;0.85;;;;;;;9.58;100.00;98223.63;5052812;28;20693;-68
2022/04/07 09:26:31;;;;;;;1.95;1.05;;;;;;;9.78;97.33;98218.44;5052617;28;20037;-68
2022/04/07 09:28:57;;;;;;;7.85;1.90;;;;;;;9.95;97.90;98223.59;5052638;28;20033;-68
2022/04/07 09:31:23;;;;;;;3.80;1.30;;;;;;;10.02;94.90;98218.06;5052533;28;20583;-68
2022/04/07 09:33:54;;;;;;;2.15;1.00;;;;;;;10.12;93.49;98226.09;5052655;28;20033;-68
2022/04/07 09:36:21;;;;;;;1.27;1.10;;;;;;;10.36;93.62;98212.41;5052179;28;20037;-68
2022/04/07 09:38:54;;;;;;;2.92;1.20;;;;;;;10.43;89.35;98232.41;5052188;28;20527;-68
2022/04/07 09:41:21;;;;;;;1.60;1.38;;;;;;;10.55;90.69;98242.84;5052353;28;20029;-68
2022/04/07 09:43:58;;;;;;;1.50;1.10;;;;;;;10.57;87.82;98239.94;5052384;28;20400;-68
2022/04/07 09:46:31;;;;;;;5.60;1.92;;;;;;;10.49;87.31;98242.03;5052358;28;20116;-68
2022/04/07 09:49:10;;;;;;;2.47;1.08;;;;;;;10.72;86.84;98240.78;5051923;28;20126;-68
2022/04/07 09:51:46;;;;;;;3.65;1.08;;;;;;;10.99;86.20;98225.66;5052301;28;20036;-68
2022/04/07 09:54:14;;;;;;;2.78;1.17;;;;;;;11.11;81.45;98221.69;5051763;28;20443;-68
2022/04/07 09:56:40;;;;;;;4.28;1.45;;;;;;;10.91;80.11;98224.31;5051997;28;20036;-68
2022/04/07 09:59:06;;;;;;;3.88;1.33;;;;;;;10.79;81.67;98226.41;5052189;28;20033;-68
2022/04/07 10:01:33;;;;;;;2.00;0.93;;;;;;;10.67;82.18;98224.78;5051924;28;20040;-68
2022/04/07 10:03:58;;;;;;;5.80;1.15;;;;;;;10.66;81.06;98231.19;5052035;28;20040;-68
2022/04/07 10:06:25;;;;;;;3.97;1.77;;;;;;;10.83;81.31;98217.63;5052085;28;20361;-68
2022/04/07 10:08:50;;;;;;;5.07;2.25;;;;;;;11.08;82.13;98229.38;5051972;28;20507;-68
2022/04/07 10:11:17;;;;;;;3.13;1.00;;;;;;;11.39;79.59;98220.34;5051892;28;20025;-68
2022/04/07 10:13:46;;;;;;;4.53;1.70;;;;;;;11.69;77.02;98240.13;5051751;28;20029;-68
2022/04/07 10:16:15;;;;;;;1.77;1.05;;;;;;;11.61;71.78;98236.09;5051751;28;20035;-68
2022/04/07 10:18:54;;;;;;;3.55;1.27;;;;;;;11.51;73.74;98246.00;5051805;28;20020;-68
2022/04/07 10:21:48;;;;;;;3.72;0.80;;;;;;;11.36;69.48;98239.56;5051678;28;20067;-68
2022/04/07 10:24:37;;;;;;;5.35;1.00;;;;;;;11.38;71.78;98236.63;5041286;28;20047;-68
2022/04/07 10:27:09;;;;;;;7.20;1.85;;;;;;;11.34;70.02;98249.72;5051568;28;20041;-68
2022/04/07 10:29:37;;;;;;;3.28;1.13;;;;;;;11.17;69.18;98262.50;5051584;28;20480;-68
2022/04/07 10:32:11;;;;;;;4.50;0.90;;;;;;;11.10;68.00;98238.72;5051432;28;20361;-68
2022/04/07 10:34:53;;;;;;;3.75;1.65;;;;;;;11.22;69.13;98246.50;5049373;28;20021;-68
2022/04/07 10:37:29;;;;;;;5.35;1.75;;;;;;;11.19;69.06;98253.16;5051129;28;20464;-68
2022/04/07 10:39:55;;;;;;;5.85;1.25;;;;;;;11.06;66.04;98263.56;5050802;28;20031;-68
2022/04/07 10:42:58;;;;;;;7.38;2.47;;;;;;;11.23;68.59;98280.09;5050984;28;20025;-68
2022/04/07 10:45:34;;;;;;;6.05;1.58;;;;;;;11.31;68.18;98262.78;5049728;28;20032;-68
2022/04/07 10:48:25;;;;;;;4.05;1.00;;;;;;;11.37;69.20;98285.72;5050933;28;20120;-68
2022/04/07 10:50:54;;;;;;;5.45;1.83;;;;;;;11.29;63.04;98288.91;5050819;28;20049;-68
2022/04/07 10:53:25;;;;;;;4.18;1.33;;;;;;;11.01;62.69;98306.22;5051159;28;20049;-68
2022/04/07 10:55:55;;;;;;;8.32;1.42;;;;;;;10.80;63.12;98300.00;5050961;28;20028;-68
2022/04/07 10:58:21;;;;;;;5.70;1.80;;;;;;;10.76;64.43;98315.69;5051141;28;20037;-68
2022/04/07 11:00:47;;;;;;;4.07;1.15;;;;;;;10.89;62.88;98306.41;5050901;28;20041;-68
2022/04/07 11:03:18;;;;;;;3.97;1.50;;;;;;;11.12;63.22;98319.31;5050971;28;20379;-68
2022/04/07 11:06:21;;;;;;;3.92;1.42;;;;;;;11.30;62.73;98286.00;5050936;28;20028;-68
2022/04/07 11:09:14;;;;;;;5.68;2.22;;;;;;;11.46;62.73;98310.03;5047397;28;20075;-68
2022/04/07 11:11:55;;;;;;;7.28;2.08;;;;;;;11.56;61.39;98313.53;5050226;28;20457;-68
2022/04/07 11:14:27;;;;;;;7.47;1.42;;;;;;;11.45;61.17;98335.94;5050065;28;20036;-68
2022/04/07 11:16:56;;;;;;;4.03;2.33;;;;;;;11.22;61.86;98331.06;5050584;28;20095;-68
2022/04/07 11:19:45;;;;;;;5.32;1.10;;;;;;;11.13;63.15;98331.59;5050052;28;20021;-68
2022/04/07 11:22:12;;;;;;;4.38;1.45;;;;;;;11.22;62.36;98339.88;5050435;28;20029;-68
2022/04/07 11:24:43;;;;;;;5.85;1.13;;;;;;;11.37;61.93;98312.41;5050203;28;20032;-68
2022/04/07 11:27:35;;;;;;;2.97;1.63;;;;;;;11.49;63.55;98329.00;5050185;28;20060;-68
2022/04/07 11:30:08;;;;;;;4.50;1.92;;;;;;;11.57;60.79;98357.03;5050340;28;20479;-68
2022/04/07 11:32:34;;;;;;;4.07;1.48;;;;;;;11.53;61.65;98355.97;5050367;28;20055;-68
2022/04/07 11:35:16;;;;;;;4.45;0.93;;;;;;;11.19;61.90;98346.53;5049494;28;20132;-68
2022/04/07 11:37:42;;;;;;;;;;;;;;;11.01;64.12;98381.69;5049910;28;20028;-68
2022/04/07 11:40:08;;;;;;;6.43;2.05;;;;;;;10.86;62.87;98376.28;5049714;28;19912;-68